sensor_id;sensor_type;location;lat;lon;timestamp;P1;durP1;ratioP1;P2;durP2;ratioP2
86271;SDS011;76930;50.692;16.628;2024-03-06T00:00:41;25.30;;;15.30;;
86271;SDS011;76930;50.692;16.628;2024-03-06T00:03:09;23.50;;;16.10;;
86271;SDS011;76930;50.692;16.628;2024-03-06T00:05:36;27.00;;;15.50;;
86271;SDS011;76930;50.692;16.628;2024-03-06T00:08:04;26.60;;;15.20;;
86271;SDS011;76930;50.692;16.628;2024-03-06T00:10:32;26.60;;;16.00;;
86271;SDS011;76930;50.692;16.628;2024-03-06T00:12:59;29.30;;;15.70;;
86271;SDS011;76930;50.692;16.628;2024-03-06T00:15:27;26.80;;;15.70;;
86271;SDS011;76930;50.692;16.628;2024-03-06T00:17:54;26.00;;;15.30;;
86271;SDS011;76930;50.692;16.628;2024-03-06T00:20:22;25.40;;;15.30;;
86271;SDS011;76930;50.692;16.628;2024-03-06T00:22:49;26.30;;;17.60;;
86271;SDS011;76930;50.692;16.628;2024-03-06T00:25:17;30.50;;;19.00;;
86271;SDS011;76930;50.692;16.628;2024-03-06T00:27:44;29.30;;;19.00;;
86271;SDS011;76930;50.692;16.628;2024-03-06T00:30:11;29.10;;;17.50;;
86271;SDS011;76930;50.692;16.628;2024-03-06T00:32:38;27.20;;;16.50;;
86271;SDS011;76930;50.692;16.628;2024-03-06T00:35:05;31.30;;;16.30;;
86271;SDS011;76930;50.692;16.628;2024-03-06T00:37:33;30.20;;;16.60;;
86271;SDS011;76930;50.692;16.628;2024-03-06T00:40:00;29.40;;;16.40;;
86271;SDS011;76930;50.692;16.628;2024-03-06T00:42:28;30.00;;;17.80;;
86271;SDS011;76930;50.692;16.628;2024-03-06T00:44:55;26.60;;;16.90;;
86271;SDS011;76930;50.692;16.628;2024-03-06T00:47:22;28.50;;;17.40;;
86271;SDS011;76930;50.692;16.628;2024-03-06T00:49:50;26.90;;;15.50;;
86271;SDS011;76930;50.692;16.628;2024-03-06T00:52:17;31.70;;;18.90;;
86271;SDS011;76930;50.692;16.628;2024-03-06T00:54:44;25.80;;;16.10;;
86271;SDS011;76930;50.692;16.628;2024-03-06T00:57:11;33.30;;;21.10;;
86271;SDS011;76930;50.692;16.628;2024-03-06T00:59:38;33.40;;;17.60;;
86271;SDS011;76930;50.692;16.628;2024-03-06T01:02:05;31.10;;;18.80;;
86271;SDS011;76930;50.692;16.628;2024-03-06T01:04:33;27.70;;;16.10;;
86271;SDS011;76930;50.692;16.628;2024-03-06T01:07:00;34.90;;;17.80;;
86271;SDS011;76930;50.692;16.628;2024-03-06T01:09:28;36.50;;;21.20;;
86271;SDS011;76930;50.692;16.628;2024-03-06T01:11:56;33.00;;;18.70;;
86271;SDS011;76930;50.692;16.628;2024-03-06T01:14:23;35.20;;;19.00;;
86271;SDS011;76930;50.692;16.628;2024-03-06T01:16:50;33.70;;;19.70;;
86271;SDS011;76930;50.692;16.628;2024-03-06T01:19:20;32.50;;;19.10;;
86271;SDS011;76930;50.692;16.628;2024-03-06T01:21:47;34.30;;;19.80;;
86271;SDS011;76930;50.692;16.628;2024-03-06T01:24:15;35.00;;;19.50;;
86271;SDS011;76930;50.692;16.628;2024-03-06T01:26:42;29.00;;;16.70;;
86271;SDS011;76930;50.692;16.628;2024-03-06T01:29:09;34.90;;;18.90;;
86271;SDS011;76930;50.692;16.628;2024-03-06T01:31:37;31.50;;;18.40;;
86271;SDS011;76930;50.692;16.628;2024-03-06T01:34:05;30.40;;;18.00;;
86271;SDS011;76930;50.692;16.628;2024-03-06T01:36:32;34.70;;;18.50;;
86271;SDS011;76930;50.692;16.628;2024-03-06T01:39:00;31.20;;;18.00;;
86271;SDS011;76930;50.692;16.628;2024-03-06T01:41:27;31.00;;;17.80;;
86271;SDS011;76930;50.692;16.628;2024-03-06T01:43:54;30.20;;;16.80;;
86271;SDS011;76930;50.692;16.628;2024-03-06T01:46:21;34.90;;;19.00;;
86271;SDS011;76930;50.692;16.628;2024-03-06T01:48:49;30.20;;;17.70;;
86271;SDS011;76930;50.692;16.628;2024-03-06T01:51:17;38.50;;;20.40;;
86271;SDS011;76930;50.692;16.628;2024-03-06T01:53:46;33.00;;;20.40;;
86271;SDS011;76930;50.692;16.628;2024-03-06T01:56:15;32.10;;;19.00;;
86271;SDS011;76930;50.692;16.628;2024-03-06T01:58:45;34.00;;;19.50;;
86271;SDS011;76930;50.692;16.628;2024-03-06T02:01:14;52.90;;;24.50;;
86271;SDS011;76930;50.692;16.628;2024-03-06T02:03:44;64.40;;;28.40;;
86271;SDS011;76930;50.692;16.628;2024-03-06T02:06:12;134.90;;;49.30;;
86271;SDS011;76930;50.692;16.628;2024-03-06T02:08:41;161.10;;;54.60;;
86271;SDS011;76930;50.692;16.628;2024-03-06T02:11:09;46.30;;;22.00;;
86271;SDS011;76930;50.692;16.628;2024-03-06T02:13:36;37.40;;;18.50;;
86271;SDS011;76930;50.692;16.628;2024-03-06T02:16:04;36.30;;;20.30;;
86271;SDS011;76930;50.692;16.628;2024-03-06T02:18:31;43.20;;;22.30;;
86271;SDS011;76930;50.692;16.628;2024-03-06T02:20:58;41.90;;;22.80;;
86271;SDS011;76930;50.692;16.628;2024-03-06T02:23:26;39.50;;;22.30;;
86271;SDS011;76930;50.692;16.628;2024-03-06T02:25:54;31.60;;;17.10;;
86271;SDS011;76930;50.692;16.628;2024-03-06T02:28:21;35.90;;;21.50;;
86271;SDS011;76930;50.692;16.628;2024-03-06T02:30:52;35.20;;;20.00;;
86271;SDS011;76930;50.692;16.628;2024-03-06T02:33:21;35.10;;;19.80;;
86271;SDS011;76930;50.692;16.628;2024-03-06T02:35:48;35.70;;;19.80;;
86271;SDS011;76930;50.692;16.628;2024-03-06T02:38:16;33.80;;;19.40;;
86271;SDS011;76930;50.692;16.628;2024-03-06T02:40:44;29.70;;;17.90;;
86271;SDS011;76930;50.692;16.628;2024-03-06T02:43:12;37.80;;;20.10;;
86271;SDS011;76930;50.692;16.628;2024-03-06T02:45:39;34.10;;;20.10;;
86271;SDS011;76930;50.692;16.628;2024-03-06T02:48:06;34.00;;;18.40;;
86271;SDS011;76930;50.692;16.628;2024-03-06T02:50:36;34.60;;;19.70;;
86271;SDS011;76930;50.692;16.628;2024-03-06T02:53:03;29.50;;;19.10;;
86271;SDS011;76930;50.692;16.628;2024-03-06T02:55:30;36.60;;;19.30;;
86271;SDS011;76930;50.692;16.628;2024-03-06T02:58:00;30.80;;;18.50;;
86271;SDS011;76930;50.692;16.628;2024-03-06T03:00:29;30.90;;;17.50;;
86271;SDS011;76930;50.692;16.628;2024-03-06T03:03:00;29.60;;;17.80;;
86271;SDS011;76930;50.692;16.628;2024-03-06T03:05:27;29.60;;;18.00;;
86271;SDS011;76930;50.692;16.628;2024-03-06T03:07:55;32.30;;;18.70;;
86271;SDS011;76930;50.692;16.628;2024-03-06T03:10:22;26.80;;;16.60;;
86271;SDS011;76930;50.692;16.628;2024-03-06T03:12:51;34.10;;;19.80;;
86271;SDS011;76930;50.692;16.628;2024-03-06T03:15:19;31.20;;;19.20;;
86271;SDS011;76930;50.692;16.628;2024-03-06T03:17:46;33.90;;;20.00;;
86271;SDS011;76930;50.692;16.628;2024-03-06T03:20:13;30.10;;;17.40;;
86271;SDS011;76930;50.692;16.628;2024-03-06T03:22:41;30.20;;;17.00;;
86271;SDS011;76930;50.692;16.628;2024-03-06T03:25:09;27.50;;;17.90;;
86271;SDS011;76930;50.692;16.628;2024-03-06T03:27:40;29.30;;;18.40;;
86271;SDS011;76930;50.692;16.628;2024-03-06T03:30:12;31.10;;;17.80;;
86271;SDS011;76930;50.692;16.628;2024-03-06T03:32:40;30.50;;;17.70;;
86271;SDS011;76930;50.692;16.628;2024-03-06T03:35:07;38.00;;;19.80;;
86271;SDS011;76930;50.692;16.628;2024-03-06T03:37:35;37.60;;;20.40;;
86271;SDS011;76930;50.692;16.628;2024-03-06T03:40:02;31.30;;;19.30;;
86271;SDS011;76930;50.692;16.628;2024-03-06T03:42:30;38.80;;;24.50;;
86271;SDS011;76930;50.692;16.628;2024-03-06T03:44:57;35.50;;;23.10;;
86271;SDS011;76930;50.692;16.628;2024-03-06T03:47:24;44.60;;;26.40;;
86271;SDS011;76930;50.692;16.628;2024-03-06T03:49:51;66.60;;;33.30;;
86271;SDS011;76930;50.692;16.628;2024-03-06T03:52:35;62.20;;;27.40;;
86271;SDS011;76930;50.692;16.628;2024-03-06T03:55:11;48.30;;;29.40;;
86271;SDS011;76930;50.692;16.628;2024-03-06T03:57:39;47.90;;;27.50;;
86271;SDS011;76930;50.692;16.628;2024-03-06T04:00:06;43.20;;;26.30;;
86271;SDS011;76930;50.692;16.628;2024-03-06T04:02:38;70.90;;;34.30;;
86271;SDS011;76930;50.692;16.628;2024-03-06T04:05:05;57.00;;;29.10;;
86271;SDS011;76930;50.692;16.628;2024-03-06T04:07:33;68.50;;;32.60;;
86271;SDS011;76930;50.692;16.628;2024-03-06T04:10:03;59.10;;;30.00;;
86271;SDS011;76930;50.692;16.628;2024-03-06T04:12:31;64.70;;;27.90;;
86271;SDS011;76930;50.692;16.628;2024-03-06T04:14:58;49.00;;;24.90;;
86271;SDS011;76930;50.692;16.628;2024-03-06T04:17:26;43.10;;;23.70;;
86271;SDS011;76930;50.692;16.628;2024-03-06T04:19:55;43.30;;;23.20;;
86271;SDS011;76930;50.692;16.628;2024-03-06T04:22:22;34.20;;;20.60;;
86271;SDS011;76930;50.692;16.628;2024-03-06T04:24:50;30.70;;;19.00;;
86271;SDS011;76930;50.692;16.628;2024-03-06T04:27:18;32.80;;;19.00;;
86271;SDS011;76930;50.692;16.628;2024-03-06T04:29:45;31.10;;;18.60;;
86271;SDS011;76930;50.692;16.628;2024-03-06T04:32:12;37.50;;;21.40;;
86271;SDS011;76930;50.692;16.628;2024-03-06T04:34:39;41.30;;;24.00;;
86271;SDS011;76930;50.692;16.628;2024-03-06T04:37:07;34.60;;;20.40;;
86271;SDS011;76930;50.692;16.628;2024-03-06T04:39:34;45.80;;;27.20;;
86271;SDS011;76930;50.692;16.628;2024-03-06T04:42:02;46.60;;;23.50;;
86271;SDS011;76930;50.692;16.628;2024-03-06T04:44:36;41.50;;;21.90;;
86271;SDS011;76930;50.692;16.628;2024-03-06T04:47:04;43.20;;;22.60;;
86271;SDS011;76930;50.692;16.628;2024-03-06T04:49:34;45.80;;;24.30;;
86271;SDS011;76930;50.692;16.628;2024-03-06T04:52:05;52.80;;;26.40;;
86271;SDS011;76930;50.692;16.628;2024-03-06T04:54:32;47.70;;;25.80;;
86271;SDS011;76930;50.692;16.628;2024-03-06T04:56:59;45.40;;;24.60;;
86271;SDS011;76930;50.692;16.628;2024-03-06T04:59:27;34.40;;;21.30;;
86271;SDS011;76930;50.692;16.628;2024-03-06T05:01:54;48.70;;;24.70;;
86271;SDS011;76930;50.692;16.628;2024-03-06T05:04:22;51.60;;;26.40;;
86271;SDS011;76930;50.692;16.628;2024-03-06T05:07:02;44.60;;;23.90;;
86271;SDS011;76930;50.692;16.628;2024-03-06T05:09:43;31.90;;;19.40;;
86271;SDS011;76930;50.692;16.628;2024-03-06T05:12:24;32.40;;;19.00;;
86271;SDS011;76930;50.692;16.628;2024-03-06T05:17:45;29.10;;;16.90;;
86271;SDS011;76930;50.692;16.628;2024-03-06T05:20:28;37.80;;;20.50;;
86271;SDS011;76930;50.692;16.628;2024-03-06T05:23:11;34.00;;;20.30;;
86271;SDS011;76930;50.692;16.628;2024-03-06T05:25:53;32.30;;;18.90;;
86271;SDS011;76930;50.692;16.628;2024-03-06T05:28:33;32.30;;;19.20;;
86271;SDS011;76930;50.692;16.628;2024-03-06T05:31:18;35.20;;;20.40;;
86271;SDS011;76930;50.692;16.628;2024-03-06T05:33:59;33.90;;;20.50;;
86271;SDS011;76930;50.692;16.628;2024-03-06T05:36:41;36.30;;;21.00;;
86271;SDS011;76930;50.692;16.628;2024-03-06T05:39:21;34.50;;;20.00;;
86271;SDS011;76930;50.692;16.628;2024-03-06T05:42:02;45.50;;;24.40;;
86271;SDS011;76930;50.692;16.628;2024-03-06T05:44:45;43.50;;;23.40;;
86271;SDS011;76930;50.692;16.628;2024-03-06T05:47:25;38.50;;;22.40;;
86271;SDS011;76930;50.692;16.628;2024-03-06T05:50:06;34.50;;;20.40;;
86271;SDS011;76930;50.692;16.628;2024-03-06T05:52:47;40.60;;;22.50;;
86271;SDS011;76930;50.692;16.628;2024-03-06T05:55:28;43.80;;;22.90;;
86271;SDS011;76930;50.692;16.628;2024-03-06T05:58:09;34.40;;;21.30;;
86271;SDS011;76930;50.692;16.628;2024-03-06T06:00:41;38.90;;;22.50;;
86271;SDS011;76930;50.692;16.628;2024-03-06T06:03:08;36.60;;;21.70;;
86271;SDS011;76930;50.692;16.628;2024-03-06T06:05:39;36.40;;;22.20;;
86271;SDS011;76930;50.692;16.628;2024-03-06T06:08:07;35.70;;;20.80;;
86271;SDS011;76930;50.692;16.628;2024-03-06T06:10:36;38.20;;;22.50;;
86271;SDS011;76930;50.692;16.628;2024-03-06T06:13:04;35.30;;;21.80;;
86271;SDS011;76930;50.692;16.628;2024-03-06T06:15:32;37.70;;;20.90;;
86271;SDS011;76930;50.692;16.628;2024-03-06T06:17:59;48.30;;;24.50;;
86271;SDS011;76930;50.692;16.628;2024-03-06T06:20:27;43.60;;;24.20;;
86271;SDS011;76930;50.692;16.628;2024-03-06T06:22:55;38.90;;;22.30;;
86271;SDS011;76930;50.692;16.628;2024-03-06T06:25:22;39.00;;;23.00;;
86271;SDS011;76930;50.692;16.628;2024-03-06T06:27:49;38.30;;;21.70;;
86271;SDS011;76930;50.692;16.628;2024-03-06T06:30:16;35.70;;;20.30;;
86271;SDS011;76930;50.692;16.628;2024-03-06T06:32:44;34.70;;;19.80;;
86271;SDS011;76930;50.692;16.628;2024-03-06T06:35:11;38.70;;;21.00;;
86271;SDS011;76930;50.692;16.628;2024-03-06T06:37:40;40.10;;;23.10;;
86271;SDS011;76930;50.692;16.628;2024-03-06T06:40:09;40.80;;;24.80;;
86271;SDS011;76930;50.692;16.628;2024-03-06T06:42:47;45.30;;;25.20;;
86271;SDS011;76930;50.692;16.628;2024-03-06T06:45:20;35.90;;;19.40;;
86271;SDS011;76930;50.692;16.628;2024-03-06T06:47:50;38.90;;;23.90;;
86271;SDS011;76930;50.692;16.628;2024-03-06T06:52:48;44.30;;;23.20;;
86271;SDS011;76930;50.692;16.628;2024-03-06T06:55:16;39.40;;;22.90;;
86271;SDS011;76930;50.692;16.628;2024-03-06T06:57:44;41.30;;;25.70;;
86271;SDS011;76930;50.692;16.628;2024-03-06T07:00:11;34.50;;;21.30;;
86271;SDS011;76930;50.692;16.628;2024-03-06T07:02:41;41.10;;;24.10;;
86271;SDS011;76930;50.692;16.628;2024-03-06T07:05:09;44.80;;;25.60;;
86271;SDS011;76930;50.692;16.628;2024-03-06T07:07:37;41.80;;;22.60;;
86271;SDS011;76930;50.692;16.628;2024-03-06T07:10:05;49.70;;;27.30;;
86271;SDS011;76930;50.692;16.628;2024-03-06T07:12:35;61.10;;;31.30;;
86271;SDS011;76930;50.692;16.628;2024-03-06T07:15:03;45.80;;;25.60;;
86271;SDS011;76930;50.692;16.628;2024-03-06T07:17:31;46.40;;;26.60;;
86271;SDS011;76930;50.692;16.628;2024-03-06T07:19:58;46.70;;;26.50;;
86271;SDS011;76930;50.692;16.628;2024-03-06T07:22:26;42.90;;;26.40;;
86271;SDS011;76930;50.692;16.628;2024-03-06T07:24:53;34.30;;;22.30;;
86271;SDS011;76930;50.692;16.628;2024-03-06T07:27:20;37.70;;;22.40;;
86271;SDS011;76930;50.692;16.628;2024-03-06T07:29:49;40.00;;;22.70;;
86271;SDS011;76930;50.692;16.628;2024-03-06T07:32:17;39.00;;;22.40;;
86271;SDS011;76930;50.692;16.628;2024-03-06T07:34:44;28.20;;;17.20;;
86271;SDS011;76930;50.692;16.628;2024-03-06T07:37:12;31.70;;;18.60;;
86271;SDS011;76930;50.692;16.628;2024-03-06T07:39:41;27.40;;;16.30;;
86271;SDS011;76930;50.692;16.628;2024-03-06T07:42:08;34.50;;;20.00;;
86271;SDS011;76930;50.692;16.628;2024-03-06T07:47:04;24.80;;;14.60;;
86271;SDS011;76930;50.692;16.628;2024-03-06T07:49:31;27.20;;;16.60;;
86271;SDS011;76930;50.692;16.628;2024-03-06T07:51:59;36.70;;;20.60;;
86271;SDS011;76930;50.692;16.628;2024-03-06T07:54:26;26.10;;;16.10;;
86271;SDS011;76930;50.692;16.628;2024-03-06T07:56:53;25.30;;;16.60;;
86271;SDS011;76930;50.692;16.628;2024-03-06T07:59:21;54.60;;;30.90;;
86271;SDS011;76930;50.692;16.628;2024-03-06T08:01:48;46.50;;;24.80;;
86271;SDS011;76930;50.692;16.628;2024-03-06T08:04:15;33.20;;;17.70;;
86271;SDS011;76930;50.692;16.628;2024-03-06T08:06:42;35.50;;;21.10;;
86271;SDS011;76930;50.692;16.628;2024-03-06T08:09:09;71.10;;;36.30;;
86271;SDS011;76930;50.692;16.628;2024-03-06T08:11:37;34.70;;;19.90;;
86271;SDS011;76930;50.692;16.628;2024-03-06T08:14:05;30.80;;;19.10;;
86271;SDS011;76930;50.692;16.628;2024-03-06T08:16:33;28.30;;;18.50;;
86271;SDS011;76930;50.692;16.628;2024-03-06T08:19:03;35.00;;;21.30;;
86271;SDS011;76930;50.692;16.628;2024-03-06T08:21:31;35.80;;;21.50;;
86271;SDS011;76930;50.692;16.628;2024-03-06T08:23:58;31.90;;;20.60;;
86271;SDS011;76930;50.692;16.628;2024-03-06T08:26:25;32.90;;;20.30;;
86271;SDS011;76930;50.692;16.628;2024-03-06T08:28:55;28.40;;;17.90;;
86271;SDS011;76930;50.692;16.628;2024-03-06T08:31:22;31.50;;;19.10;;
86271;SDS011;76930;50.692;16.628;2024-03-06T08:33:49;26.40;;;16.50;;
86271;SDS011;76930;50.692;16.628;2024-03-06T08:36:17;26.60;;;16.20;;
86271;SDS011;76930;50.692;16.628;2024-03-06T08:38:44;24.40;;;15.30;;
86271;SDS011;76930;50.692;16.628;2024-03-06T08:41:12;27.30;;;16.40;;
86271;SDS011;76930;50.692;16.628;2024-03-06T08:43:44;23.30;;;15.00;;
86271;SDS011;76930;50.692;16.628;2024-03-06T08:46:13;25.60;;;16.00;;
86271;SDS011;76930;50.692;16.628;2024-03-06T08:48:41;26.60;;;16.60;;
86271;SDS011;76930;50.692;16.628;2024-03-06T08:51:08;26.40;;;15.70;;
86271;SDS011;76930;50.692;16.628;2024-03-06T08:53:39;19.50;;;13.20;;
86271;SDS011;76930;50.692;16.628;2024-03-06T08:56:07;19.30;;;13.10;;
86271;SDS011;76930;50.692;16.628;2024-03-06T08:58:34;20.80;;;13.70;;
86271;SDS011;76930;50.692;16.628;2024-03-06T09:01:01;20.80;;;13.80;;
86271;SDS011;76930;50.692;16.628;2024-03-06T09:03:28;21.80;;;14.30;;
86271;SDS011;76930;50.692;16.628;2024-03-06T09:05:55;20.30;;;14.40;;
86271;SDS011;76930;50.692;16.628;2024-03-06T09:08:23;22.70;;;15.00;;
86271;SDS011;76930;50.692;16.628;2024-03-06T09:10:50;25.60;;;15.20;;
86271;SDS011;76930;50.692;16.628;2024-03-06T09:13:17;31.90;;;19.70;;
86271;SDS011;76930;50.692;16.628;2024-03-06T09:15:44;27.00;;;15.50;;
86271;SDS011;76930;50.692;16.628;2024-03-06T09:18:11;25.90;;;16.20;;
86271;SDS011;76930;50.692;16.628;2024-03-06T09:20:41;23.00;;;15.60;;
86271;SDS011;76930;50.692;16.628;2024-03-06T09:23:09;24.60;;;15.70;;
86271;SDS011;76930;50.692;16.628;2024-03-06T09:25:36;22.10;;;14.70;;
86271;SDS011;76930;50.692;16.628;2024-03-06T09:28:03;21.60;;;14.50;;
86271;SDS011;76930;50.692;16.628;2024-03-06T09:30:31;22.70;;;15.90;;
86271;SDS011;76930;50.692;16.628;2024-03-06T09:32:58;24.10;;;15.50;;
86271;SDS011;76930;50.692;16.628;2024-03-06T09:35:26;19.30;;;14.20;;
86271;SDS011;76930;50.692;16.628;2024-03-06T09:37:53;20.40;;;13.20;;
86271;SDS011;76930;50.692;16.628;2024-03-06T09:40:21;20.80;;;13.70;;
86271;SDS011;76930;50.692;16.628;2024-03-06T09:42:50;21.20;;;13.70;;
86271;SDS011;76930;50.692;16.628;2024-03-06T09:45:17;25.30;;;13.70;;
86271;SDS011;76930;50.692;16.628;2024-03-06T09:47:46;18.00;;;12.90;;
86271;SDS011;76930;50.692;16.628;2024-03-06T09:50:17;21.40;;;14.20;;
86271;SDS011;76930;50.692;16.628;2024-03-06T09:52:49;24.20;;;16.50;;
86271;SDS011;76930;50.692;16.628;2024-03-06T09:55:24;21.50;;;13.90;;
86271;SDS011;76930;50.692;16.628;2024-03-06T09:57:52;19.00;;;12.50;;
86271;SDS011;76930;50.692;16.628;2024-03-06T10:00:21;19.60;;;13.10;;
86271;SDS011;76930;50.692;16.628;2024-03-06T10:05:21;22.40;;;13.30;;
86271;SDS011;76930;50.692;16.628;2024-03-06T10:07:50;22.00;;;13.80;;
86271;SDS011;76930;50.692;16.628;2024-03-06T10:10:18;20.30;;;13.20;;
86271;SDS011;76930;50.692;16.628;2024-03-06T10:12:46;20.20;;;13.60;;
86271;SDS011;76930;50.692;16.628;2024-03-06T10:15:14;18.70;;;13.10;;
86271;SDS011;76930;50.692;16.628;2024-03-06T10:17:42;21.00;;;14.10;;
86271;SDS011;76930;50.692;16.628;2024-03-06T10:20:22;21.10;;;13.10;;
86271;SDS011;76930;50.692;16.628;2024-03-06T10:22:50;23.80;;;14.10;;
86271;SDS011;76930;50.692;16.628;2024-03-06T10:25:24;24.30;;;16.00;;
86271;SDS011;76930;50.692;16.628;2024-03-06T10:30:37;23.10;;;15.50;;
86271;SDS011;76930;50.692;16.628;2024-03-06T10:33:10;22.50;;;15.50;;
86271;SDS011;76930;50.692;16.628;2024-03-06T10:35:42;24.30;;;17.00;;
86271;SDS011;76930;50.692;16.628;2024-03-06T10:38:11;19.20;;;14.10;;
86271;SDS011;76930;50.692;16.628;2024-03-06T10:40:40;20.20;;;13.40;;
86271;SDS011;76930;50.692;16.628;2024-03-06T10:43:09;24.50;;;15.00;;
86271;SDS011;76930;50.692;16.628;2024-03-06T10:48:05;24.70;;;14.30;;
86271;SDS011;76930;50.692;16.628;2024-03-06T10:53:08;17.90;;;10.20;;
86271;SDS011;76930;50.692;16.628;2024-03-06T10:55:43;17.80;;;11.70;;
86271;SDS011;76930;50.692;16.628;2024-03-06T10:58:11;17.00;;;11.00;;
86271;SDS011;76930;50.692;16.628;2024-03-06T11:00:40;18.10;;;11.30;;
86271;SDS011;76930;50.692;16.628;2024-03-06T11:03:08;16.90;;;11.60;;
86271;SDS011;76930;50.692;16.628;2024-03-06T11:05:39;19.30;;;12.30;;
86271;SDS011;76930;50.692;16.628;2024-03-06T11:08:07;17.40;;;10.50;;
86271;SDS011;76930;50.692;16.628;2024-03-06T11:15:47;18.80;;;12.30;;
86271;SDS011;76930;50.692;16.628;2024-03-06T11:23:31;16.50;;;11.20;;
86271;SDS011;76930;50.692;16.628;2024-03-06T11:26:02;17.90;;;10.90;;
86271;SDS011;76930;50.692;16.628;2024-03-06T11:28:35;17.70;;;11.20;;
86271;SDS011;76930;50.692;16.628;2024-03-06T11:31:05;18.20;;;12.50;;
86271;SDS011;76930;50.692;16.628;2024-03-06T11:33:40;18.10;;;12.30;;
86271;SDS011;76930;50.692;16.628;2024-03-06T11:41:23;17.60;;;11.70;;
86271;SDS011;76930;50.692;16.628;2024-03-06T11:43:53;22.00;;;12.10;;
86271;SDS011;76930;50.692;16.628;2024-03-06T11:46:22;16.40;;;10.50;;
86271;SDS011;76930;50.692;16.628;2024-03-06T11:49:14;17.00;;;12.30;;
86271;SDS011;76930;50.692;16.628;2024-03-06T11:51:41;18.50;;;12.40;;
86271;SDS011;76930;50.692;16.628;2024-03-06T11:54:09;20.10;;;12.40;;
86271;SDS011;76930;50.692;16.628;2024-03-06T11:56:39;17.70;;;11.40;;
86271;SDS011;76930;50.692;16.628;2024-03-06T11:59:07;17.60;;;10.30;;
86271;SDS011;76930;50.692;16.628;2024-03-06T12:01:34;18.70;;;12.10;;
86271;SDS011;76930;50.692;16.628;2024-03-06T12:04:04;14.60;;;10.40;;
86271;SDS011;76930;50.692;16.628;2024-03-06T12:06:33;18.40;;;11.90;;
86271;SDS011;76930;50.692;16.628;2024-03-06T12:09:01;16.40;;;11.10;;
86271;SDS011;76930;50.692;16.628;2024-03-06T12:11:29;21.90;;;13.30;;
86271;SDS011;76930;50.692;16.628;2024-03-06T12:13:58;21.20;;;11.50;;
86271;SDS011;76930;50.692;16.628;2024-03-06T12:16:26;15.80;;;10.50;;
86271;SDS011;76930;50.692;16.628;2024-03-06T12:18:59;24.10;;;12.10;;
86271;SDS011;76930;50.692;16.628;2024-03-06T12:21:33;14.70;;;8.40;;
86271;SDS011;76930;50.692;16.628;2024-03-06T12:24:05;17.60;;;10.20;;
86271;SDS011;76930;50.692;16.628;2024-03-06T12:26:33;18.30;;;10.70;;
86271;SDS011;76930;50.692;16.628;2024-03-06T12:29:06;16.00;;;11.40;;
86271;SDS011;76930;50.692;16.628;2024-03-06T12:31:38;21.10;;;11.50;;
86271;SDS011;76930;50.692;16.628;2024-03-06T12:34:13;20.30;;;12.70;;
86271;SDS011;76930;50.692;16.628;2024-03-06T12:37:09;16.90;;;11.40;;
86271;SDS011;76930;50.692;16.628;2024-03-06T12:39:38;15.30;;;10.60;;
86271;SDS011;76930;50.692;16.628;2024-03-06T12:42:09;16.40;;;10.90;;
86271;SDS011;76930;50.692;16.628;2024-03-06T12:44:40;17.70;;;11.50;;
86271;SDS011;76930;50.692;16.628;2024-03-06T12:47:08;17.20;;;12.20;;
86271;SDS011;76930;50.692;16.628;2024-03-06T12:49:36;17.70;;;11.90;;
86271;SDS011;76930;50.692;16.628;2024-03-06T12:52:04;16.40;;;10.80;;
86271;SDS011;76930;50.692;16.628;2024-03-06T12:54:32;20.20;;;12.50;;
86271;SDS011;76930;50.692;16.628;2024-03-06T12:56:59;18.30;;;11.60;;
86271;SDS011;76930;50.692;16.628;2024-03-06T12:59:27;20.90;;;13.80;;
86271;SDS011;76930;50.692;16.628;2024-03-06T13:01:55;19.90;;;13.50;;
86271;SDS011;76930;50.692;16.628;2024-03-06T13:06:51;19.40;;;13.10;;
86271;SDS011;76930;50.692;16.628;2024-03-06T13:09:18;22.90;;;15.90;;
86271;SDS011;76930;50.692;16.628;2024-03-06T13:11:45;22.60;;;13.90;;
86271;SDS011;76930;50.692;16.628;2024-03-06T13:14:12;25.90;;;15.20;;
86271;SDS011;76930;50.692;16.628;2024-03-06T13:16:40;25.40;;;16.70;;
86271;SDS011;76930;50.692;16.628;2024-03-06T13:19:07;24.80;;;16.70;;
86271;SDS011;76930;50.692;16.628;2024-03-06T13:21:35;29.20;;;17.00;;
86271;SDS011;76930;50.692;16.628;2024-03-06T13:24:02;27.40;;;17.80;;
86271;SDS011;76930;50.692;16.628;2024-03-06T13:26:30;31.70;;;18.60;;
86271;SDS011;76930;50.692;16.628;2024-03-06T13:28:58;25.00;;;16.40;;
86271;SDS011;76930;50.692;16.628;2024-03-06T13:31:27;27.20;;;15.90;;
86271;SDS011;76930;50.692;16.628;2024-03-06T13:33:54;29.10;;;17.50;;
86271;SDS011;76930;50.692;16.628;2024-03-06T13:36:22;25.40;;;15.40;;
86271;SDS011;76930;50.692;16.628;2024-03-06T13:38:49;28.60;;;17.40;;
86271;SDS011;76930;50.692;16.628;2024-03-06T13:41:16;25.60;;;15.80;;
86271;SDS011;76930;50.692;16.628;2024-03-06T13:43:44;26.70;;;16.50;;
86271;SDS011;76930;50.692;16.628;2024-03-06T13:46:11;29.10;;;16.20;;
86271;SDS011;76930;50.692;16.628;2024-03-06T13:48:38;31.10;;;17.40;;
86271;SDS011;76930;50.692;16.628;2024-03-06T13:51:06;28.80;;;16.80;;
86271;SDS011;76930;50.692;16.628;2024-03-06T13:53:34;38.90;;;20.80;;
86271;SDS011;76930;50.692;16.628;2024-03-06T13:56:01;39.90;;;23.40;;
86271;SDS011;76930;50.692;16.628;2024-03-06T13:58:29;33.70;;;19.00;;
86271;SDS011;76930;50.692;16.628;2024-03-06T14:00:56;25.30;;;16.60;;
86271;SDS011;76930;50.692;16.628;2024-03-06T14:03:24;31.20;;;18.80;;
86271;SDS011;76930;50.692;16.628;2024-03-06T14:05:52;34.60;;;21.60;;
86271;SDS011;76930;50.692;16.628;2024-03-06T14:08:20;28.80;;;17.70;;
86271;SDS011;76930;50.692;16.628;2024-03-06T14:10:49;35.90;;;21.60;;
86271;SDS011;76930;50.692;16.628;2024-03-06T14:13:17;29.80;;;17.60;;
86271;SDS011;76930;50.692;16.628;2024-03-06T14:15:45;28.60;;;18.30;;
86271;SDS011;76930;50.692;16.628;2024-03-06T14:18:15;29.70;;;17.10;;
86271;SDS011;76930;50.692;16.628;2024-03-06T14:20:43;26.60;;;16.30;;
86271;SDS011;76930;50.692;16.628;2024-03-06T14:23:11;27.40;;;15.90;;
86271;SDS011;76930;50.692;16.628;2024-03-06T14:25:39;26.40;;;15.60;;
86271;SDS011;76930;50.692;16.628;2024-03-06T14:28:07;22.50;;;14.00;;
86271;SDS011;76930;50.692;16.628;2024-03-06T14:30:35;25.10;;;14.80;;
86271;SDS011;76930;50.692;16.628;2024-03-06T14:33:04;33.80;;;20.90;;
86271;SDS011;76930;50.692;16.628;2024-03-06T14:35:31;18.80;;;12.10;;
86271;SDS011;76930;50.692;16.628;2024-03-06T14:37:59;21.80;;;10.80;;
86271;SDS011;76930;50.692;16.628;2024-03-06T14:40:27;38.80;;;18.90;;
86271;SDS011;76930;50.692;16.628;2024-03-06T14:42:54;20.70;;;12.70;;
86271;SDS011;76930;50.692;16.628;2024-03-06T14:45:21;20.60;;;11.70;;
86271;SDS011;76930;50.692;16.628;2024-03-06T14:47:50;23.40;;;13.10;;
86271;SDS011;76930;50.692;16.628;2024-03-06T14:50:17;24.90;;;14.50;;
86271;SDS011;76930;50.692;16.628;2024-03-06T14:52:44;25.40;;;15.10;;
86271;SDS011;76930;50.692;16.628;2024-03-06T14:55:11;31.90;;;19.60;;